Bost Airport


Codes: OABT/BST
Name: Bost Airport
City: Bost
Country: Afghanistan
Elevation: 2464 ft.

Photos at Bost Airport


   Photos courtesy of SpottingLog. You can add your own sightings and photos by signing up for a free trial today.



No photos found.

Weather at Bost Airport


Time (UTC)DescriptionTempratureWindCloud coverageVisibilityPressureHumidity
16-Jun-2024 03:00Scattered Clouds31°C4 mph, SW29%10000m1002hPa14%
16-Jun-2024 06:00Few Clouds37°C13 mph, W14%10000m1002hPa11%
16-Jun-2024 09:00Clear Sky42°C18 mph, W3%10000m1000hPa8%
16-Jun-2024 12:00Clear Sky41°C18 mph, W4%10000m998hPa8%
16-Jun-2024 15:00Clear Sky36°C13 mph, SW0%10000m999hPa12%
16-Jun-2024 18:00Clear Sky33°C11 mph, SW0%10000m1000hPa14%
16-Jun-2024 21:00Clear Sky30°C7 mph, W0%10000m1000hPa16%
17-Jun-2024 00:00Clear Sky29°C7 mph, SW0%10000m1001hPa18%
17-Jun-2024 03:00Clear Sky32°C7 mph, SW0%10000m1003hPa16%
17-Jun-2024 06:00Clear Sky38°C9 mph, W0%10000m1002hPa11%
17-Jun-2024 09:00Clear Sky42°C9 mph, NW0%10000m999hPa7%
17-Jun-2024 12:00Clear Sky42°C9 mph, NW0%10000m997hPa6%
17-Jun-2024 15:00Clear Sky37°C11 mph, W0%10000m998hPa9%
17-Jun-2024 18:00Clear Sky33°C13 mph, W0%10000m999hPa13%
17-Jun-2024 21:00Clear Sky30°C7 mph, S0%10000m999hPa17%
18-Jun-2024 00:00Clear Sky27°C9 mph, S0%10000m1000hPa20%
18-Jun-2024 03:00Clear Sky30°C7 mph, S0%10000m1001hPa17%
18-Jun-2024 06:00Clear Sky37°C7 mph, SE0%10000m1000hPa11%
18-Jun-2024 09:00Clear Sky41°C2 mph, NE0%10000m997hPa7%
18-Jun-2024 12:00Clear Sky42°C7 mph, NW0%10000m995hPa7%
18-Jun-2024 15:00Clear Sky37°C7 mph, W0%10000m995hPa10%
18-Jun-2024 18:00Clear Sky34°C7 mph, W0%10000m996hPa12%
18-Jun-2024 21:00Clear Sky33°C18 mph, NE0%10000m996hPa13%
19-Jun-2024 00:00Clear Sky32°C27 mph, NE0%10000m996hPa12%
19-Jun-2024 03:00Clear Sky34°C18 mph, N0%10000m998hPa12%
19-Jun-2024 06:00Clear Sky39°C18 mph, N0%10000m997hPa8%
19-Jun-2024 09:00Clear Sky43°C11 mph, N0%10000m994hPa6%
19-Jun-2024 12:00Clear Sky43°C13 mph, W0%10000m993hPa6%
19-Jun-2024 15:00Clear Sky37°C9 mph, W0%10000m993hPa9%
19-Jun-2024 18:00Clear Sky34°C18 mph, NE0%10000m995hPa11%
19-Jun-2024 21:00Clear Sky33°C29 mph, NE0%10000m994hPa14%
20-Jun-2024 00:00Clear Sky31°C27 mph, NE0%10000m994hPa16%
20-Jun-2024 03:00Clear Sky34°C22 mph, N0%10000m997hPa14%
20-Jun-2024 06:00Clear Sky39°C18 mph, NE0%10000m996hPa10%
20-Jun-2024 09:00Clear Sky42°C11 mph, N0%10000m993hPa7%
20-Jun-2024 12:00Clear Sky42°C9 mph, NW0%10000m991hPa6%
20-Jun-2024 15:00Clear Sky36°C9 mph, W0%10000m992hPa9%
20-Jun-2024 18:00Clear Sky32°C4 mph, S0%10000m993hPa11%
20-Jun-2024 21:00Clear Sky32°C20 mph, NE0%10000m993hPa16%
21-Jun-2024 00:00Clear Sky31°C22 mph, NE0%10000m994hPa17%